sensor_id;sensor_type;location;lat;lon;timestamp;P1;durP1;ratioP1;P2;durP2;ratioP2
21589;SDS011;10957;50.968;6.828;2022-09-09T00:03:53;3.15;;;3.05;;
21589;SDS011;10957;50.968;6.828;2022-09-09T00:14:11;3.00;;;2.90;;
21589;SDS011;10957;50.968;6.828;2022-09-09T00:19:20;3.10;;;3.00;;
21589;SDS011;10957;50.968;6.828;2022-09-09T00:24:27;3.20;;;3.10;;
21589;SDS011;10957;50.968;6.828;2022-09-09T00:29:37;3.20;;;3.10;;
21589;SDS011;10957;50.968;6.828;2022-09-09T00:34:47;4.00;;;3.80;;
21589;SDS011;10957;50.968;6.828;2022-09-09T00:39:55;3.30;;;3.20;;
21589;SDS011;10957;50.968;6.828;2022-09-09T01:01:16;3.42;;;3.33;;
21589;SDS011;10957;50.968;6.828;2022-09-09T01:06:22;3.30;;;3.20;;
21589;SDS011;10957;50.968;6.828;2022-09-09T01:16:44;3.20;;;3.10;;
21589;SDS011;10957;50.968;6.828;2022-09-09T01:21:55;3.10;;;3.00;;
21589;SDS011;10957;50.968;6.828;2022-09-09T01:27:07;3.20;;;3.10;;
21589;SDS011;10957;50.968;6.828;2022-09-09T01:37:46;3.28;;;3.17;;
21589;SDS011;10957;50.968;6.828;2022-09-09T01:42:47;3.10;;;3.00;;
21589;SDS011;10957;50.968;6.828;2022-09-09T01:47:49;3.03;;;2.92;;
21589;SDS011;10957;50.968;6.828;2022-09-09T01:52:56;3.10;;;3.00;;
21589;SDS011;10957;50.968;6.828;2022-09-09T02:03:21;3.00;;;2.90;;
21589;SDS011;10957;50.968;6.828;2022-09-09T02:08:36;4.40;;;4.10;;
21589;SDS011;10957;50.968;6.828;2022-09-09T02:13:48;2.97;;;2.88;;
21589;SDS011;10957;50.968;6.828;2022-09-09T02:24:32;2.80;;;2.70;;
21589;SDS011;10957;50.968;6.828;2022-09-09T02:29:46;3.15;;;3.05;;
21589;SDS011;10957;50.968;6.828;2022-09-09T02:34:56;3.20;;;3.10;;
21589;SDS011;10957;50.968;6.828;2022-09-09T02:40:06;3.10;;;3.00;;
21589;SDS011;10957;50.968;6.828;2022-09-09T02:45:14;3.15;;;3.05;;
21589;SDS011;10957;50.968;6.828;2022-09-09T02:50:22;3.30;;;3.20;;
21589;SDS011;10957;50.968;6.828;2022-09-09T02:55:39;3.08;;;2.97;;
21589;SDS011;10957;50.968;6.828;2022-09-09T03:00:50;4.47;;;4.28;;
21589;SDS011;10957;50.968;6.828;2022-09-09T03:05:53;3.28;;;3.17;;
21589;SDS011;10957;50.968;6.828;2022-09-09T03:10:55;3.17;;;3.08;;
21589;SDS011;10957;50.968;6.828;2022-09-09T03:16:00;3.30;;;3.20;;
21589;SDS011;10957;50.968;6.828;2022-09-09T03:21:05;3.00;;;2.90;;
21589;SDS011;10957;50.968;6.828;2022-09-09T03:26:07;2.90;;;2.80;;
21589;SDS011;10957;50.968;6.828;2022-09-09T03:31:18;5.00;;;4.70;;
21589;SDS011;10957;50.968;6.828;2022-09-09T03:36:20;3.47;;;3.28;;
21589;SDS011;10957;50.968;6.828;2022-09-09T03:41:21;2.92;;;2.83;;
21589;SDS011;10957;50.968;6.828;2022-09-09T03:46:25;4.43;;;4.22;;
21589;SDS011;10957;50.968;6.828;2022-09-09T03:51:26;2.90;;;2.80;;
21589;SDS011;10957;50.968;6.828;2022-09-09T03:56:28;2.70;;;2.60;;
21589;SDS011;10957;50.968;6.828;2022-09-09T04:01:29;2.90;;;2.80;;
21589;SDS011;10957;50.968;6.828;2022-09-09T04:06:30;2.83;;;2.72;;
21589;SDS011;10957;50.968;6.828;2022-09-09T04:11:31;2.60;;;2.50;;
21589;SDS011;10957;50.968;6.828;2022-09-09T04:16:33;3.10;;;3.00;;
21589;SDS011;10957;50.968;6.828;2022-09-09T04:21:36;3.10;;;3.00;;
21589;SDS011;10957;50.968;6.828;2022-09-09T04:26:37;2.90;;;2.80;;
21589;SDS011;10957;50.968;6.828;2022-09-09T04:31:38;2.90;;;2.80;;
21589;SDS011;10957;50.968;6.828;2022-09-09T04:36:42;5.97;;;3.45;;
21589;SDS011;10957;50.968;6.828;2022-09-09T04:41:43;3.10;;;3.00;;
21589;SDS011;10957;50.968;6.828;2022-09-09T04:46:44;2.90;;;2.80;;
21589;SDS011;10957;50.968;6.828;2022-09-09T04:51:46;3.67;;;3.53;;
21589;SDS011;10957;50.968;6.828;2022-09-09T04:56:51;3.00;;;2.90;;
21589;SDS011;10957;50.968;6.828;2022-09-09T05:01:52;3.30;;;3.08;;
21589;SDS011;10957;50.968;6.828;2022-09-09T05:06:55;2.80;;;2.70;;
21589;SDS011;10957;50.968;6.828;2022-09-09T05:11:57;3.42;;;3.30;;
21589;SDS011;10957;50.968;6.828;2022-09-09T05:17:03;3.03;;;2.92;;
21589;SDS011;10957;50.968;6.828;2022-09-09T05:22:06;2.90;;;2.80;;
21589;SDS011;10957;50.968;6.828;2022-09-09T05:27:15;2.85;;;2.75;;
21589;SDS011;10957;50.968;6.828;2022-09-09T05:32:15;3.60;;;3.30;;
21589;SDS011;10957;50.968;6.828;2022-09-09T05:37:20;3.10;;;3.00;;
21589;SDS011;10957;50.968;6.828;2022-09-09T05:42:21;2.75;;;2.65;;
21589;SDS011;10957;50.968;6.828;2022-09-09T05:47:21;3.05;;;2.95;;
21589;SDS011;10957;50.968;6.828;2022-09-09T05:52:23;2.97;;;2.88;;
21589;SDS011;10957;50.968;6.828;2022-09-09T05:57:26;2.72;;;2.63;;
21589;SDS011;10957;50.968;6.828;2022-09-09T06:02:27;2.90;;;2.80;;
21589;SDS011;10957;50.968;6.828;2022-09-09T06:07:28;2.90;;;2.80;;
21589;SDS011;10957;50.968;6.828;2022-09-09T06:12:29;2.97;;;2.88;;
21589;SDS011;10957;50.968;6.828;2022-09-09T06:17:30;2.72;;;2.63;;
21589;SDS011;10957;50.968;6.828;2022-09-09T06:22:31;2.53;;;2.42;;
21589;SDS011;10957;50.968;6.828;2022-09-09T06:27:32;2.70;;;2.60;;
21589;SDS011;10957;50.968;6.828;2022-09-09T06:32:33;3.00;;;2.90;;
21589;SDS011;10957;50.968;6.828;2022-09-09T06:37:37;2.80;;;2.70;;
21589;SDS011;10957;50.968;6.828;2022-09-09T06:42:39;2.80;;;2.70;;
21589;SDS011;10957;50.968;6.828;2022-09-09T06:48:08;2.72;;;2.63;;
21589;SDS011;10957;50.968;6.828;2022-09-09T06:53:09;2.70;;;2.60;;
21589;SDS011;10957;50.968;6.828;2022-09-09T06:58:10;2.60;;;2.50;;
21589;SDS011;10957;50.968;6.828;2022-09-09T07:03:12;3.00;;;2.90;;
21589;SDS011;10957;50.968;6.828;2022-09-09T07:08:13;2.50;;;2.40;;
21589;SDS011;10957;50.968;6.828;2022-09-09T07:13:14;2.80;;;2.70;;
21589;SDS011;10957;50.968;6.828;2022-09-09T07:18:16;2.40;;;2.30;;
21589;SDS011;10957;50.968;6.828;2022-09-09T07:23:17;2.80;;;2.70;;
21589;SDS011;10957;50.968;6.828;2022-09-09T07:28:18;2.72;;;2.63;;
21589;SDS011;10957;50.968;6.828;2022-09-09T07:33:20;3.10;;;3.00;;
21589;SDS011;10957;50.968;6.828;2022-09-09T07:38:21;2.63;;;2.53;;
21589;SDS011;10957;50.968;6.828;2022-09-09T07:43:25;3.30;;;3.10;;
21589;SDS011;10957;50.968;6.828;2022-09-09T07:48:28;2.72;;;2.63;;
21589;SDS011;10957;50.968;6.828;2022-09-09T07:53:30;2.70;;;2.60;;
21589;SDS011;10957;50.968;6.828;2022-09-09T07:58:31;2.90;;;2.80;;
21589;SDS011;10957;50.968;6.828;2022-09-09T08:03:33;2.70;;;2.60;;
21589;SDS011;10957;50.968;6.828;2022-09-09T08:08:34;2.95;;;2.85;;
21589;SDS011;10957;50.968;6.828;2022-09-09T08:13:37;2.83;;;2.72;;
21589;SDS011;10957;50.968;6.828;2022-09-09T08:18:39;2.90;;;2.80;;
21589;SDS011;10957;50.968;6.828;2022-09-09T08:23:41;2.70;;;2.60;;
21589;SDS011;10957;50.968;6.828;2022-09-09T08:28:43;2.67;;;2.58;;
21589;SDS011;10957;50.968;6.828;2022-09-09T08:33:44;2.70;;;2.60;;
21589;SDS011;10957;50.968;6.828;2022-09-09T08:38:50;2.55;;;2.45;;
21589;SDS011;10957;50.968;6.828;2022-09-09T08:44:06;2.50;;;2.40;;
21589;SDS011;10957;50.968;6.828;2022-09-09T08:49:39;2.47;;;2.38;;
21589;SDS011;10957;50.968;6.828;2022-09-09T08:55:05;2.40;;;2.30;;
21589;SDS011;10957;50.968;6.828;2022-09-09T09:00:34;2.90;;;2.80;;
21589;SDS011;10957;50.968;6.828;2022-09-09T09:05:52;2.30;;;2.20;;
21589;SDS011;10957;50.968;6.828;2022-09-09T09:11:17;2.10;;;2.00;;
21589;SDS011;10957;50.968;6.828;2022-09-09T09:16:22;2.17;;;2.08;;
21589;SDS011;10957;50.968;6.828;2022-09-09T09:21:34;2.20;;;2.10;;
21589;SDS011;10957;50.968;6.828;2022-09-09T09:26:46;2.20;;;2.10;;
21589;SDS011;10957;50.968;6.828;2022-09-09T09:31:52;2.42;;;2.17;;
21589;SDS011;10957;50.968;6.828;2022-09-09T09:36:57;2.20;;;2.10;;
21589;SDS011;10957;50.968;6.828;2022-09-09T09:42:08;14.80;;;2.65;;
21589;SDS011;10957;50.968;6.828;2022-09-09T09:47:15;2.33;;;2.22;;
21589;SDS011;10957;50.968;6.828;2022-09-09T09:52:25;2.33;;;2.22;;
21589;SDS011;10957;50.968;6.828;2022-09-09T09:57:29;2.38;;;2.28;;
21589;SDS011;10957;50.968;6.828;2022-09-09T10:02:37;2.35;;;2.25;;
21589;SDS011;10957;50.968;6.828;2022-09-09T10:07:43;2.28;;;2.17;;
21589;SDS011;10957;50.968;6.828;2022-09-09T10:12:52;2.28;;;2.17;;
21589;SDS011;10957;50.968;6.828;2022-09-09T10:34:15;2.80;;;2.70;;
21589;SDS011;10957;50.968;6.828;2022-09-09T10:55:28;2.20;;;2.10;;
21589;SDS011;10957;50.968;6.828;2022-09-09T11:05:50;2.20;;;2.10;;
21589;SDS011;10957;50.968;6.828;2022-09-09T11:11:21;2.30;;;2.20;;
21589;SDS011;10957;50.968;6.828;2022-09-09T11:21:51;2.20;;;2.10;;
21589;SDS011;10957;50.968;6.828;2022-09-09T11:32:03;2.20;;;2.10;;
21589;SDS011;10957;50.968;6.828;2022-09-09T11:37:16;2.15;;;2.05;;
21589;SDS011;10957;50.968;6.828;2022-09-09T11:42:22;2.47;;;2.38;;
21589;SDS011;10957;50.968;6.828;2022-09-09T11:47:26;2.30;;;2.20;;
21589;SDS011;10957;50.968;6.828;2022-09-09T11:57:43;2.08;;;1.98;;
21589;SDS011;10957;50.968;6.828;2022-09-09T12:02:48;2.20;;;2.10;;
21589;SDS011;10957;50.968;6.828;2022-09-09T12:07:56;1.95;;;1.85;;
21589;SDS011;10957;50.968;6.828;2022-09-09T12:13:21;2.03;;;1.92;;
21589;SDS011;10957;50.968;6.828;2022-09-09T12:18:33;1.80;;;1.80;;
21589;SDS011;10957;50.968;6.828;2022-09-09T12:23:55;1.60;;;1.60;;
21589;SDS011;10957;50.968;6.828;2022-09-09T12:29:05;2.33;;;2.22;;
21589;SDS011;10957;50.968;6.828;2022-09-09T12:39:58;4.07;;;2.90;;
21589;SDS011;10957;50.968;6.828;2022-09-09T12:45:03;2.00;;;1.90;;
21589;SDS011;10957;50.968;6.828;2022-09-09T12:50:21;2.20;;;2.10;;
21589;SDS011;10957;50.968;6.828;2022-09-09T12:55:30;2.95;;;2.80;;
21589;SDS011;10957;50.968;6.828;2022-09-09T13:00:34;3.85;;;3.65;;
21589;SDS011;10957;50.968;6.828;2022-09-09T13:05:35;2.10;;;2.00;;
21589;SDS011;10957;50.968;6.828;2022-09-09T13:10:49;2.20;;;2.10;;
21589;SDS011;10957;50.968;6.828;2022-09-09T13:15:57;3.22;;;3.13;;
21589;SDS011;10957;50.968;6.828;2022-09-09T13:21:00;2.00;;;1.90;;
21589;SDS011;10957;50.968;6.828;2022-09-09T13:26:06;2.00;;;1.90;;
21589;SDS011;10957;50.968;6.828;2022-09-09T13:31:32;2.45;;;2.35;;
21589;SDS011;10957;50.968;6.828;2022-09-09T13:36:36;2.17;;;2.08;;
21589;SDS011;10957;50.968;6.828;2022-09-09T13:41:41;2.03;;;1.92;;
21589;SDS011;10957;50.968;6.828;2022-09-09T13:46:44;2.53;;;2.42;;
21589;SDS011;10957;50.968;6.828;2022-09-09T13:51:46;2.55;;;2.28;;
21589;SDS011;10957;50.968;6.828;2022-09-09T13:56:49;2.28;;;2.17;;
21589;SDS011;10957;50.968;6.828;2022-09-09T14:01:49;2.10;;;2.00;;
21589;SDS011;10957;50.968;6.828;2022-09-09T14:06:52;2.20;;;2.10;;
21589;SDS011;10957;50.968;6.828;2022-09-09T14:11:54;2.10;;;2.00;;
21589;SDS011;10957;50.968;6.828;2022-09-09T14:16:55;2.10;;;2.00;;
21589;SDS011;10957;50.968;6.828;2022-09-09T14:21:56;2.45;;;2.35;;
21589;SDS011;10957;50.968;6.828;2022-09-09T14:26:58;2.47;;;2.38;;
21589;SDS011;10957;50.968;6.828;2022-09-09T14:31:58;2.50;;;2.40;;
21589;SDS011;10957;50.968;6.828;2022-09-09T14:37:01;2.80;;;2.70;;
21589;SDS011;10957;50.968;6.828;2022-09-09T14:42:02;2.80;;;2.70;;
21589;SDS011;10957;50.968;6.828;2022-09-09T14:47:02;3.17;;;2.92;;
21589;SDS011;10957;50.968;6.828;2022-09-09T14:52:04;2.75;;;2.65;;
21589;SDS011;10957;50.968;6.828;2022-09-09T14:57:04;2.90;;;2.80;;
21589;SDS011;10957;50.968;6.828;2022-09-09T15:02:07;3.03;;;2.92;;
21589;SDS011;10957;50.968;6.828;2022-09-09T15:07:09;2.67;;;2.58;;
21589;SDS011;10957;50.968;6.828;2022-09-09T15:12:10;2.80;;;2.70;;
21589;SDS011;10957;50.968;6.828;2022-09-09T15:17:11;2.70;;;2.60;;
21589;SDS011;10957;50.968;6.828;2022-09-09T15:22:12;2.60;;;2.50;;
21589;SDS011;10957;50.968;6.828;2022-09-09T15:27:14;2.30;;;2.20;;
21589;SDS011;10957;50.968;6.828;2022-09-09T15:32:15;2.40;;;2.30;;
21589;SDS011;10957;50.968;6.828;2022-09-09T15:37:15;2.78;;;2.67;;
21589;SDS011;10957;50.968;6.828;2022-09-09T15:42:17;2.70;;;2.60;;
21589;SDS011;10957;50.968;6.828;2022-09-09T15:47:17;2.50;;;2.40;;
21589;SDS011;10957;50.968;6.828;2022-09-09T15:52:18;2.58;;;2.47;;
21589;SDS011;10957;50.968;6.828;2022-09-09T15:57:19;2.67;;;2.58;;
21589;SDS011;10957;50.968;6.828;2022-09-09T16:02:19;2.90;;;2.80;;
21589;SDS011;10957;50.968;6.828;2022-09-09T16:07:20;2.47;;;2.38;;
21589;SDS011;10957;50.968;6.828;2022-09-09T16:12:21;2.20;;;2.10;;
21589;SDS011;10957;50.968;6.828;2022-09-09T16:17:22;2.20;;;2.10;;
21589;SDS011;10957;50.968;6.828;2022-09-09T16:22:22;2.17;;;2.08;;
21589;SDS011;10957;50.968;6.828;2022-09-09T16:27:24;2.30;;;2.20;;
21589;SDS011;10957;50.968;6.828;2022-09-09T16:32:25;2.30;;;2.20;;
21589;SDS011;10957;50.968;6.828;2022-09-09T16:37:26;2.30;;;2.20;;
21589;SDS011;10957;50.968;6.828;2022-09-09T16:42:28;2.45;;;2.35;;
21589;SDS011;10957;50.968;6.828;2022-09-09T16:47:29;2.20;;;2.10;;
21589;SDS011;10957;50.968;6.828;2022-09-09T16:52:30;2.95;;;2.75;;
21589;SDS011;10957;50.968;6.828;2022-09-09T16:57:30;2.20;;;2.10;;
21589;SDS011;10957;50.968;6.828;2022-09-09T17:02:31;2.30;;;2.20;;
21589;SDS011;10957;50.968;6.828;2022-09-09T17:07:32;2.40;;;2.30;;
21589;SDS011;10957;50.968;6.828;2022-09-09T17:12:33;2.30;;;2.20;;
21589;SDS011;10957;50.968;6.828;2022-09-09T17:17:35;2.20;;;2.10;;
21589;SDS011;10957;50.968;6.828;2022-09-09T17:22:36;2.58;;;2.47;;
21589;SDS011;10957;50.968;6.828;2022-09-09T17:27:37;5.57;;;2.75;;
21589;SDS011;10957;50.968;6.828;2022-09-09T17:32:38;2.70;;;2.60;;
21589;SDS011;10957;50.968;6.828;2022-09-09T17:37:39;2.70;;;2.60;;
21589;SDS011;10957;50.968;6.828;2022-09-09T17:42:39;2.20;;;2.10;;
21589;SDS011;10957;50.968;6.828;2022-09-09T17:47:40;2.35;;;2.25;;
21589;SDS011;10957;50.968;6.828;2022-09-09T17:52:43;2.40;;;2.30;;
21589;SDS011;10957;50.968;6.828;2022-09-09T17:57:43;2.42;;;2.33;;
21589;SDS011;10957;50.968;6.828;2022-09-09T18:02:44;2.10;;;2.00;;
21589;SDS011;10957;50.968;6.828;2022-09-09T18:07:45;2.53;;;2.33;;
21589;SDS011;10957;50.968;6.828;2022-09-09T18:12:46;2.35;;;2.25;;
21589;SDS011;10957;50.968;6.828;2022-09-09T18:17:46;2.30;;;2.20;;
21589;SDS011;10957;50.968;6.828;2022-09-09T18:22:47;2.38;;;2.28;;
21589;SDS011;10957;50.968;6.828;2022-09-09T18:27:48;2.67;;;2.58;;
21589;SDS011;10957;50.968;6.828;2022-09-09T18:32:49;2.88;;;2.72;;
21589;SDS011;10957;50.968;6.828;2022-09-09T18:37:52;2.80;;;2.70;;
21589;SDS011;10957;50.968;6.828;2022-09-09T18:42:54;3.63;;;3.38;;
21589;SDS011;10957;50.968;6.828;2022-09-09T18:47:55;3.22;;;3.13;;
21589;SDS011;10957;50.968;6.828;2022-09-09T18:52:56;2.80;;;2.70;;
21589;SDS011;10957;50.968;6.828;2022-09-09T18:57:56;2.80;;;2.70;;
21589;SDS011;10957;50.968;6.828;2022-09-09T19:02:58;2.60;;;2.50;;
21589;SDS011;10957;50.968;6.828;2022-09-09T19:07:58;3.05;;;2.95;;
21589;SDS011;10957;50.968;6.828;2022-09-09T19:12:59;2.70;;;2.60;;
21589;SDS011;10957;50.968;6.828;2022-09-09T19:18:00;2.80;;;2.70;;
21589;SDS011;10957;50.968;6.828;2022-09-09T19:23:01;3.05;;;2.95;;
21589;SDS011;10957;50.968;6.828;2022-09-09T19:28:02;2.67;;;2.58;;
21589;SDS011;10957;50.968;6.828;2022-09-09T19:33:05;2.83;;;2.72;;
21589;SDS011;10957;50.968;6.828;2022-09-09T19:38:05;2.80;;;2.70;;
21589;SDS011;10957;50.968;6.828;2022-09-09T19:43:06;2.70;;;2.60;;
21589;SDS011;10957;50.968;6.828;2022-09-09T19:48:07;2.55;;;2.45;;
21589;SDS011;10957;50.968;6.828;2022-09-09T19:53:08;2.70;;;2.60;;
21589;SDS011;10957;50.968;6.828;2022-09-09T19:58:09;2.97;;;2.88;;
21589;SDS011;10957;50.968;6.828;2022-09-09T20:03:10;3.38;;;3.17;;
21589;SDS011;10957;50.968;6.828;2022-09-09T20:08:10;2.80;;;2.70;;
21589;SDS011;10957;50.968;6.828;2022-09-09T20:13:11;2.80;;;2.70;;
21589;SDS011;10957;50.968;6.828;2022-09-09T20:18:12;2.95;;;2.85;;
21589;SDS011;10957;50.968;6.828;2022-09-09T20:23:13;2.80;;;2.70;;
21589;SDS011;10957;50.968;6.828;2022-09-09T20:28:15;2.90;;;2.80;;
21589;SDS011;10957;50.968;6.828;2022-09-09T20:33:16;2.80;;;2.70;;
21589;SDS011;10957;50.968;6.828;2022-09-09T20:38:17;2.92;;;2.83;;
21589;SDS011;10957;50.968;6.828;2022-09-09T20:43:18;3.10;;;3.00;;
21589;SDS011;10957;50.968;6.828;2022-09-09T20:48:19;2.78;;;2.67;;
21589;SDS011;10957;50.968;6.828;2022-09-09T20:53:20;2.90;;;2.80;;
21589;SDS011;10957;50.968;6.828;2022-09-09T20:58:22;3.20;;;3.10;;
21589;SDS011;10957;50.968;6.828;2022-09-09T21:03:23;2.90;;;2.80;;
21589;SDS011;10957;50.968;6.828;2022-09-09T21:08:25;3.00;;;2.90;;
21589;SDS011;10957;50.968;6.828;2022-09-09T21:13:26;3.10;;;3.00;;
21589;SDS011;10957;50.968;6.828;2022-09-09T21:18:32;3.05;;;2.95;;
21589;SDS011;10957;50.968;6.828;2022-09-09T21:23:33;2.92;;;2.83;;
21589;SDS011;10957;50.968;6.828;2022-09-09T21:28:35;3.30;;;3.20;;
21589;SDS011;10957;50.968;6.828;2022-09-09T21:33:36;3.10;;;3.00;;
21589;SDS011;10957;50.968;6.828;2022-09-09T21:38:37;3.20;;;3.10;;
21589;SDS011;10957;50.968;6.828;2022-09-09T21:43:40;3.60;;;3.50;;
21589;SDS011;10957;50.968;6.828;2022-09-09T21:48:42;3.35;;;3.25;;
21589;SDS011;10957;50.968;6.828;2022-09-09T21:53:44;3.70;;;3.50;;
21589;SDS011;10957;50.968;6.828;2022-09-09T21:58:45;3.55;;;3.45;;
21589;SDS011;10957;50.968;6.828;2022-09-09T22:03:46;3.30;;;3.20;;
21589;SDS011;10957;50.968;6.828;2022-09-09T22:08:47;3.20;;;3.10;;
21589;SDS011;10957;50.968;6.828;2022-09-09T22:13:48;3.28;;;3.17;;
21589;SDS011;10957;50.968;6.828;2022-09-09T22:18:54;3.17;;;3.08;;
21589;SDS011;10957;50.968;6.828;2022-09-09T22:23:57;3.30;;;3.20;;
21589;SDS011;10957;50.968;6.828;2022-09-09T22:29:00;3.22;;;3.13;;
21589;SDS011;10957;50.968;6.828;2022-09-09T22:34:03;3.20;;;3.10;;
21589;SDS011;10957;50.968;6.828;2022-09-09T22:39:04;3.45;;;3.30;;
21589;SDS011;10957;50.968;6.828;2022-09-09T22:44:06;3.30;;;3.20;;
21589;SDS011;10957;50.968;6.828;2022-09-09T22:49:08;3.08;;;2.97;;
21589;SDS011;10957;50.968;6.828;2022-09-09T22:54:10;3.20;;;3.10;;
21589;SDS011;10957;50.968;6.828;2022-09-09T22:59:11;3.42;;;3.33;;
21589;SDS011;10957;50.968;6.828;2022-09-09T23:04:12;3.28;;;3.17;;
21589;SDS011;10957;50.968;6.828;2022-09-09T23:09:13;3.92;;;3.78;;
21589;SDS011;10957;50.968;6.828;2022-09-09T23:14:14;3.40;;;3.30;;
21589;SDS011;10957;50.968;6.828;2022-09-09T23:19:15;3.90;;;3.72;;
21589;SDS011;10957;50.968;6.828;2022-09-09T23:24:16;3.63;;;3.53;;
21589;SDS011;10957;50.968;6.828;2022-09-09T23:29:18;3.40;;;3.30;;
21589;SDS011;10957;50.968;6.828;2022-09-09T23:34:19;3.70;;;3.55;;
21589;SDS011;10957;50.968;6.828;2022-09-09T23:39:19;3.55;;;3.45;;
21589;SDS011;10957;50.968;6.828;2022-09-09T23:44:22;3.58;;;3.47;;
21589;SDS011;10957;50.968;6.828;2022-09-09T23:49:23;3.20;;;3.10;;
21589;SDS011;10957;50.968;6.828;2022-09-09T23:54:25;3.33;;;3.22;;
21589;SDS011;10957;50.968;6.828;2022-09-09T23:59:26;3.28;;;3.17;;
